createdAt,value
2023-02-28T00:00:42.885Z,56.01
2023-02-28T00:01:42.875Z,56.01
2023-02-28T00:02:42.873Z,56.10
2023-02-28T00:03:42.912Z,56.10
2023-02-28T00:04:42.855Z,56.10
2023-02-28T00:05:42.835Z,56.10
2023-02-28T00:06:42.839Z,56.10
2023-02-28T00:07:42.807Z,56.21
2023-02-28T00:08:42.828Z,56.21
2023-02-28T00:09:42.787Z,56.30
2023-02-28T00:10:42.786Z,56.41
2023-02-28T00:11:42.766Z,56.41
2023-02-28T00:12:42.781Z,56.41
2023-02-28T00:13:42.742Z,56.38
2023-02-28T00:14:42.795Z,56.51
2023-02-28T00:15:42.721Z,56.61
2023-02-28T00:16:42.741Z,56.48
2023-02-28T00:17:42.699Z,56.48
2023-02-28T00:18:42.742Z,56.38
2023-02-28T00:19:42.676Z,56.38
2023-02-28T00:20:42.707Z,56.58
2023-02-28T00:21:42.659Z,55.58
2023-02-28T00:22:42.662Z,55.30
2023-02-28T00:23:42.647Z,55.08
2023-02-28T00:24:42.645Z,55.08
2023-02-28T00:25:42.623Z,54.97
2023-02-28T00:26:42.651Z,54.97
2023-02-28T00:27:42.596Z,55.18
2023-02-28T00:28:42.600Z,55.98
2023-02-28T00:29:42.574Z,56.48
2023-02-28T00:30:42.618Z,56.58
2023-02-28T00:31:42.557Z,56.61
2023-02-28T00:32:42.586Z,56.68
2023-02-28T00:33:42.532Z,56.88
2023-02-28T00:34:42.536Z,56.78
2023-02-28T00:35:42.545Z,56.91
2023-02-28T00:36:42.538Z,56.98
2023-02-28T00:37:42.502Z,56.88
2023-02-28T00:38:42.518Z,57.28
2023-02-28T00:39:42.469Z,57.28
2023-02-28T00:40:42.470Z,57.39
2023-02-28T00:41:42.488Z,57.48
2023-02-28T00:42:42.447Z,57.59
2023-02-28T00:43:42.455Z,57.08
2023-02-28T00:44:42.428Z,56.98
2023-02-28T00:45:42.405Z,56.98
2023-02-28T00:46:42.405Z,57.08
2023-02-28T00:47:42.436Z,56.98
2023-02-28T00:48:42.393Z,57.28
2023-02-28T00:49:42.384Z,56.78
2023-02-28T00:50:42.366Z,57.08
2023-02-28T00:51:42.343Z,57.08
2023-02-28T00:52:42.346Z,57.18
2023-02-28T00:53:42.339Z,57.28
2023-02-28T00:54:42.320Z,57.28
2023-02-28T00:55:42.318Z,57.18
2023-02-28T00:56:42.332Z,57.39
2023-02-28T00:57:42.281Z,57.08
2023-02-28T00:58:42.286Z,56.98
2023-02-28T00:59:42.283Z,56.08
2023-02-28T01:00:42.263Z,56.28
2023-02-28T01:01:42.345Z,55.98
2023-02-28T01:02:42.245Z,55.78
2023-02-28T01:03:42.215Z,55.68
2023-02-28T01:04:42.282Z,55.68
2023-02-28T01:05:42.194Z,55.78
2023-02-28T01:06:42.215Z,55.78
2023-02-28T01:07:42.192Z,55.78
2023-02-28T01:08:42.200Z,55.88
2023-02-28T01:09:42.155Z,55.88
2023-02-28T01:10:42.175Z,55.88
2023-02-28T01:11:42.133Z,55.98
2023-02-28T01:12:42.133Z,55.98
2023-02-28T01:13:42.112Z,56.01
2023-02-28T01:14:42.134Z,56.08
2023-02-28T01:15:42.283Z,56.10
2023-02-28T01:16:42.297Z,56.18
2023-02-28T01:17:42.228Z,56.21
2023-02-28T01:18:42.174Z,56.21
2023-02-28T01:19:42.091Z,56.18
2023-02-28T01:20:42.177Z,56.21
2023-02-28T01:21:42.078Z,56.21
2023-02-28T01:22:42.105Z,56.18
2023-02-28T01:23:42.047Z,56.30
2023-02-28T01:24:42.023Z,56.30
2023-02-28T01:25:42.029Z,56.41
2023-02-28T01:26:42.022Z,56.41
2023-02-28T01:27:41.980Z,56.41
2023-02-28T01:28:41.988Z,56.41
2023-02-28T01:29:41.975Z,56.41
2023-02-28T01:30:41.957Z,56.51
2023-02-28T01:31:41.930Z,56.61
2023-02-28T01:32:41.938Z,56.61
2023-02-28T01:33:41.908Z,56.61
2023-02-28T01:34:41.936Z,56.61
2023-02-28T01:35:41.929Z,56.61
2023-02-28T01:36:41.965Z,56.61
2023-02-28T01:37:41.890Z,56.61
2023-02-28T01:38:41.909Z,56.71
2023-02-28T01:39:41.854Z,56.61
2023-02-28T01:40:41.853Z,56.61
2023-02-28T01:41:41.847Z,56.71
2023-02-28T01:42:41.832Z,56.71
2023-02-28T01:43:41.804Z,56.71
2023-02-28T01:44:41.803Z,56.71
2023-02-28T01:45:41.782Z,56.71
2023-02-28T01:46:41.814Z,56.71
2023-02-28T01:47:41.786Z,56.71
2023-02-28T01:48:41.773Z,56.71
2023-02-28T01:49:41.751Z,56.71
2023-02-28T01:50:41.742Z,56.71
2023-02-28T01:51:41.740Z,56.91
2023-02-28T01:52:41.712Z,56.91
2023-02-28T01:53:41.738Z,56.81
2023-02-28T01:54:41.718Z,56.78
2023-02-28T01:55:41.719Z,56.68
2023-02-28T01:56:41.667Z,56.68
2023-02-28T01:57:41.680Z,56.71
2023-02-28T01:58:41.647Z,56.78
2023-02-28T01:59:41.649Z,56.81
2023-02-28T02:00:41.649Z,56.71
2023-02-28T02:01:41.677Z,56.71
2023-02-28T02:02:41.626Z,56.71
2023-02-28T02:03:41.612Z,56.68
2023-02-28T02:04:41.581Z,56.68
2023-02-28T02:05:41.617Z,56.68
2023-02-28T02:06:41.567Z,56.71
2023-02-28T02:07:41.574Z,56.68
2023-02-28T02:08:41.544Z,56.68
2023-02-28T02:09:41.549Z,56.68
2023-02-28T02:10:41.527Z,56.68
2023-02-28T02:11:41.545Z,56.68
2023-02-28T02:12:41.500Z,56.68
2023-02-28T02:13:41.521Z,56.68
2023-02-28T02:14:41.479Z,56.58
2023-02-28T02:15:41.537Z,56.68
2023-02-28T02:16:41.456Z,56.68
2023-02-28T02:17:41.461Z,56.71
2023-02-28T02:18:41.442Z,56.71
2023-02-28T02:19:41.465Z,56.68
2023-02-28T02:20:41.414Z,56.78
2023-02-28T02:21:41.416Z,56.71
2023-02-28T02:22:41.412Z,56.71
2023-02-28T02:23:41.396Z,56.71
2023-02-28T02:24:41.402Z,56.68
2023-02-28T02:25:41.397Z,56.71
2023-02-28T02:26:41.358Z,56.81
2023-02-28T02:27:41.366Z,56.81
2023-02-28T02:28:41.336Z,56.81
2023-02-28T02:29:41.334Z,56.81
2023-02-28T02:30:41.334Z,56.91
2023-02-28T02:31:41.476Z,56.91
2023-02-28T02:32:41.290Z,56.91
2023-02-28T02:33:41.303Z,56.91
2023-02-28T02:34:41.269Z,57.01
2023-02-28T02:35:41.345Z,56.91
2023-02-28T02:36:41.248Z,57.01
2023-02-28T02:37:41.257Z,56.91
2023-02-28T02:38:41.233Z,57.01
2023-02-28T02:39:41.285Z,57.01
2023-02-28T02:40:41.207Z,57.01
2023-02-28T02:41:41.245Z,57.01
2023-02-28T02:42:41.184Z,56.91
2023-02-28T02:43:41.189Z,57.01
2023-02-28T02:44:41.162Z,57.01
2023-02-28T02:45:41.199Z,57.01
2023-02-28T02:46:41.222Z,56.91
2023-02-28T02:47:41.165Z,56.91
2023-02-28T02:48:41.123Z,56.91
2023-02-28T02:49:41.133Z,56.91
2023-02-28T02:50:41.107Z,56.91
2023-02-28T02:51:41.136Z,56.91
2023-02-28T02:52:41.083Z,56.91
2023-02-28T02:53:41.090Z,56.91
2023-02-28T02:54:41.061Z,57.01
2023-02-28T02:55:41.060Z,56.91
2023-02-28T02:56:41.043Z,57.01
2023-02-28T02:57:41.069Z,57.01
2023-02-28T02:58:41.021Z,57.01
2023-02-28T02:59:41.034Z,56.98
2023-02-28T03:00:41.010Z,56.98
2023-02-28T03:01:41.007Z,56.98
2023-02-28T03:02:41.030Z,56.98
2023-02-28T03:03:41.003Z,57.01
2023-02-28T03:04:40.961Z,57.01
2023-02-28T03:05:40.961Z,56.98
2023-02-28T03:06:40.949Z,56.98
2023-02-28T03:07:40.945Z,56.98
2023-02-28T03:08:40.939Z,57.08
2023-02-28T03:09:40.945Z,57.01
2023-02-28T03:10:40.895Z,56.98
2023-02-28T03:11:40.940Z,57.08
2023-02-28T03:12:40.874Z,57.08
2023-02-28T03:13:40.879Z,57.08
2023-02-28T03:14:40.858Z,57.18
2023-02-28T03:15:40.858Z,57.18
2023-02-28T03:16:40.855Z,57.08
2023-02-28T03:17:40.848Z,57.18
2023-02-28T03:18:40.822Z,57.21
2023-02-28T03:19:40.826Z,57.18
2023-02-28T03:20:40.792Z,57.18
2023-02-28T03:21:40.815Z,57.18
2023-02-28T03:22:40.772Z,57.18
2023-02-28T03:23:40.776Z,57.18
2023-02-28T03:24:40.751Z,57.18
2023-02-28T03:25:40.761Z,57.28
2023-02-28T03:26:40.758Z,57.18
2023-02-28T03:27:40.733Z,57.18
2023-02-28T03:28:40.716Z,57.18
2023-02-28T03:29:40.742Z,57.18
2023-02-28T03:30:40.690Z,57.18
2023-02-28T03:31:40.820Z,57.28
2023-02-28T03:32:40.781Z,57.28
2023-02-28T03:33:40.670Z,57.28
2023-02-28T03:34:40.697Z,57.28
2023-02-28T03:35:40.699Z,57.28
2023-02-28T03:36:40.657Z,57.28
2023-02-28T03:37:40.655Z,57.28
2023-02-28T03:38:40.617Z,57.28
2023-02-28T03:39:40.641Z,57.28
2023-02-28T03:40:40.599Z,57.28
2023-02-28T03:41:40.599Z,57.39
2023-02-28T03:42:40.565Z,57.28
2023-02-28T03:43:40.578Z,57.28
2023-02-28T03:44:40.573Z,57.28
2023-02-28T03:45:40.599Z,57.28
2023-02-28T03:46:40.529Z,57.28
2023-02-28T03:47:40.536Z,57.28
2023-02-28T03:48:40.508Z,57.28
2023-02-28T03:49:40.516Z,57.28
2023-02-28T03:50:40.514Z,57.28
2023-02-28T03:51:40.495Z,57.28
2023-02-28T03:52:40.468Z,57.18
2023-02-28T03:53:40.477Z,57.18
2023-02-28T03:54:40.454Z,57.18
2023-02-28T03:55:40.563Z,57.18
2023-02-28T03:56:40.451Z,57.18
2023-02-28T03:57:40.438Z,57.18
2023-02-28T03:58:40.403Z,57.18
2023-02-28T03:59:40.416Z,57.18
2023-02-28T04:00:40.384Z,57.18
2023-02-28T04:01:40.401Z,57.18
2023-02-28T04:02:40.384Z,57.28
2023-02-28T04:03:40.387Z,57.18
2023-02-28T04:04:40.371Z,57.18
2023-02-28T04:05:40.356Z,57.08
2023-02-28T04:06:40.321Z,57.18
2023-02-28T04:07:40.335Z,57.18
2023-02-28T04:08:40.326Z,57.18
2023-02-28T04:09:40.305Z,57.18
2023-02-28T04:10:40.286Z,57.28
2023-02-28T04:11:40.243Z,57.89
2023-02-28T04:12:40.207Z,57.28
2023-02-28T04:13:40.214Z,57.39
2023-02-28T04:14:40.205Z,57.28
2023-02-28T04:15:40.189Z,57.28
2023-02-28T04:16:40.243Z,57.28
2023-02-28T04:17:40.204Z,57.18
2023-02-28T04:18:40.140Z,57.18
2023-02-28T04:19:40.164Z,57.18
2023-02-28T04:20:40.130Z,57.18
2023-02-28T04:21:40.158Z,57.18
2023-02-28T04:22:40.179Z,57.18
2023-02-28T04:23:40.158Z,57.18
2023-02-28T04:24:40.140Z,57.28
2023-02-28T04:25:40.144Z,57.28
2023-02-28T04:26:40.128Z,57.48
2023-02-28T04:27:40.123Z,57.48
2023-02-28T04:28:40.121Z,57.39
2023-02-28T04:29:40.110Z,57.39
2023-02-28T04:30:40.102Z,57.39
2023-02-28T04:31:40.384Z,57.48
2023-02-28T04:32:40.087Z,57.48
2023-02-28T04:33:40.008Z,57.48
2023-02-28T04:34:40.025Z,57.48
2023-02-28T04:35:40.036Z,57.48
2023-02-28T04:36:40.017Z,57.48
2023-02-28T04:37:40.016Z,57.39
2023-02-28T04:38:39.943Z,57.48
2023-02-28T04:39:39.957Z,57.48
2023-02-28T04:40:39.918Z,57.48
2023-02-28T04:41:39.977Z,57.48
2023-02-28T04:42:39.965Z,57.48
2023-02-28T04:43:39.985Z,57.39
2023-02-28T04:44:39.938Z,57.39
2023-02-28T04:45:39.958Z,57.39
2023-02-28T04:46:39.913Z,57.39
2023-02-28T04:47:39.919Z,57.39
2023-02-28T04:48:39.888Z,57.39
2023-02-28T04:49:39.920Z,57.48
2023-02-28T04:50:39.892Z,57.39
2023-02-28T04:51:39.872Z,57.39
2023-02-28T04:52:39.850Z,57.39
2023-02-28T04:53:39.855Z,57.39
2023-02-28T04:54:39.853Z,57.39
2023-02-28T04:55:39.786Z,57.39
2023-02-28T04:56:39.767Z,57.39
2023-02-28T04:57:39.775Z,57.39
2023-02-28T04:58:39.725Z,57.39
2023-02-28T04:59:39.792Z,57.39
2023-02-28T05:00:39.766Z,57.39
2023-02-28T05:01:39.770Z,57.39
2023-02-28T05:02:39.784Z,57.39
2023-02-28T05:03:39.751Z,57.41
2023-02-28T05:04:39.800Z,57.39
2023-02-28T05:05:39.720Z,57.39
2023-02-28T05:06:39.679Z,57.39
2023-02-28T05:07:39.645Z,57.39
2023-02-28T05:08:39.625Z,57.59
2023-02-28T05:09:39.696Z,57.48
2023-02-28T05:10:39.657Z,57.48
2023-02-28T05:11:39.693Z,57.11
2023-02-28T05:12:39.653Z,56.58
2023-02-28T05:13:39.641Z,56.71
2023-02-28T05:14:39.613Z,56.78
2023-02-28T05:15:39.619Z,56.91
2023-02-28T05:16:39.607Z,57.11
2023-02-28T05:17:39.624Z,57.11
2023-02-28T05:18:39.584Z,57.31
2023-02-28T05:19:39.603Z,57.31
2023-02-28T05:20:39.549Z,57.31
2023-02-28T05:21:39.557Z,57.31
2023-02-28T05:22:39.524Z,57.31
2023-02-28T05:23:39.536Z,57.31
2023-02-28T05:24:39.505Z,57.31
2023-02-28T05:25:39.534Z,57.18
2023-02-28T05:26:39.496Z,57.21
2023-02-28T05:27:39.488Z,57.21
2023-02-28T05:28:39.471Z,57.31
2023-02-28T05:29:39.474Z,57.21
2023-02-28T05:30:39.454Z,57.21
2023-02-28T05:31:39.551Z,57.21
2023-02-28T05:32:39.478Z,57.21
2023-02-28T05:33:39.434Z,57.18
2023-02-28T05:34:39.404Z,57.21
2023-02-28T05:35:39.490Z,57.31
2023-02-28T05:36:39.409Z,57.21
2023-02-28T05:37:39.385Z,57.21
2023-02-28T05:38:39.359Z,57.21
2023-02-28T05:39:39.388Z,57.21
2023-02-28T05:40:39.341Z,57.31
2023-02-28T05:41:39.348Z,57.28
2023-02-28T05:42:39.333Z,57.31
2023-02-28T05:43:39.330Z,57.21
2023-02-28T05:44:39.292Z,57.21
2023-02-28T05:45:39.365Z,57.18
2023-02-28T05:46:39.288Z,57.31
2023-02-28T05:47:39.274Z,57.21
2023-02-28T05:48:39.355Z,57.31
2023-02-28T05:49:39.261Z,57.28
2023-02-28T05:50:39.229Z,57.31
2023-02-28T05:51:39.259Z,57.28
2023-02-28T05:52:39.206Z,57.28
2023-02-28T05:53:39.229Z,57.28
2023-02-28T05:54:39.198Z,57.31
2023-02-28T05:55:39.211Z,57.31
2023-02-28T05:56:39.169Z,57.31
2023-02-28T05:57:39.196Z,57.31
2023-02-28T05:58:39.166Z,57.21
2023-02-28T05:59:39.168Z,57.31
2023-02-28T06:00:40.895Z,57.21
2023-02-28T06:01:39.178Z,57.31
2023-02-28T06:02:39.161Z,57.31
2023-02-28T06:03:39.208Z,57.31
2023-02-28T06:04:39.138Z,57.31
2023-02-28T06:05:39.090Z,57.31
2023-02-28T06:06:39.115Z,57.21
2023-02-28T06:07:39.068Z,57.21
2023-02-28T06:08:39.070Z,57.21
2023-02-28T06:09:39.060Z,57.31
2023-02-28T06:10:39.051Z,57.21
2023-02-28T06:11:40.710Z,57.21
2023-02-28T06:12:39.044Z,57.31
2023-02-28T06:13:39.009Z,57.31
2023-02-28T06:14:39.013Z,57.31
2023-02-28T06:15:38.989Z,57.21
2023-02-28T06:16:39.019Z,57.31
2023-02-28T06:17:38.988Z,57.31
2023-02-28T06:18:38.996Z,57.31
2023-02-28T06:19:38.947Z,57.31
2023-02-28T06:20:38.950Z,57.31
2023-02-28T06:21:38.946Z,57.21
2023-02-28T06:22:38.950Z,57.21
2023-02-28T06:23:38.911Z,57.21
2023-02-28T06:24:38.912Z,57.21
2023-02-28T06:25:38.891Z,57.11
2023-02-28T06:26:38.841Z,57.21
2023-02-28T06:27:38.885Z,57.11
2023-02-28T06:28:38.867Z,57.11
2023-02-28T06:29:38.805Z,57.11
2023-02-28T06:30:38.799Z,57.11
2023-02-28T06:31:38.893Z,57.11
2023-02-28T06:32:38.835Z,57.11
2023-02-28T06:33:38.820Z,57.11
2023-02-28T06:34:38.813Z,57.11
2023-02-28T06:35:38.816Z,57.11
2023-02-28T06:36:38.789Z,57.11
2023-02-28T06:37:41.628Z,57.11
2023-02-28T06:38:38.796Z,57.11
2023-02-28T06:39:38.695Z,57.11
2023-02-28T06:40:38.693Z,57.11
2023-02-28T06:41:53.624Z,57.11
2023-02-28T06:42:38.745Z,57.11
2023-02-28T06:43:38.697Z,57.21
2023-02-28T06:44:38.738Z,57.21
2023-02-28T06:45:38.675Z,57.21
2023-02-28T06:46:38.686Z,57.21
2023-02-28T06:47:38.638Z,57.11
2023-02-28T06:48:38.619Z,57.11
2023-02-28T06:49:38.583Z,57.21
2023-02-28T06:50:38.615Z,57.21
2023-02-28T06:51:38.567Z,57.11
2023-02-28T06:52:38.560Z,57.21
2023-02-28T06:53:38.566Z,57.11
2023-02-28T06:54:38.544Z,57.21
2023-02-28T06:55:38.519Z,57.21
2023-02-28T06:56:38.532Z,57.21
2023-02-28T06:57:38.501Z,57.21
2023-02-28T06:58:38.584Z,57.21
2023-02-28T06:59:38.505Z,57.21
2023-02-28T07:00:38.486Z,57.21
2023-02-28T07:01:38.515Z,57.21
2023-02-28T07:02:38.482Z,57.21
2023-02-28T07:03:38.435Z,57.21
2023-02-28T07:04:38.451Z,57.11
2023-02-28T07:05:38.415Z,57.21
2023-02-28T07:06:38.441Z,57.21
2023-02-28T07:07:38.391Z,57.11
2023-02-28T07:08:38.400Z,57.11
2023-02-28T07:09:38.371Z,57.11
2023-02-28T07:10:38.407Z,57.11
2023-02-28T07:11:38.379Z,57.11
2023-02-28T07:12:38.349Z,57.11
2023-02-28T07:13:38.356Z,57.11
2023-02-28T07:14:38.332Z,57.11
2023-02-28T07:15:41.228Z,57.11
2023-02-28T07:16:38.322Z,57.11
2023-02-28T07:17:38.300Z,57.21
2023-02-28T07:18:38.290Z,57.11
2023-02-28T07:19:38.264Z,57.21
2023-02-28T07:20:38.266Z,57.21
2023-02-28T07:21:38.247Z,57.21
2023-02-28T07:22:38.268Z,57.21
2023-02-28T07:23:38.221Z,57.21
2023-02-28T07:24:38.222Z,57.21
2023-02-28T07:25:38.219Z,57.21
2023-02-28T07:26:38.202Z,57.21
2023-02-28T07:27:38.180Z,57.21
2023-02-28T07:28:38.206Z,57.21
2023-02-28T07:29:38.159Z,57.31
2023-02-28T07:30:38.186Z,57.31
2023-02-28T07:31:38.194Z,57.31
2023-02-28T07:32:38.139Z,57.31
2023-02-28T07:33:38.116Z,57.31
2023-02-28T07:34:38.116Z,57.31
2023-02-28T07:35:38.118Z,57.31
2023-02-28T07:36:38.151Z,57.31
2023-02-28T07:37:38.085Z,57.31
2023-02-28T07:38:38.151Z,57.41
2023-02-28T07:39:38.119Z,57.31
2023-02-28T07:40:38.124Z,57.31
2023-02-28T07:41:38.048Z,57.21
2023-02-28T07:42:38.065Z,57.28
2023-02-28T07:43:38.019Z,57.28
2023-02-28T07:44:38.032Z,57.18
2023-02-28T07:45:38.002Z,57.31
2023-02-28T07:46:38.116Z,57.21
2023-02-28T07:47:38.003Z,57.21
2023-02-28T07:48:37.995Z,57.11
2023-02-28T07:49:37.964Z,57.18
2023-02-28T07:50:37.970Z,57.11
2023-02-28T07:51:37.961Z,57.21
2023-02-28T07:52:37.960Z,57.31
2023-02-28T07:53:37.949Z,57.28
2023-02-28T07:54:37.938Z,57.01
2023-02-28T07:55:37.899Z,56.51
2023-02-28T07:56:38.010Z,54.80
2023-02-28T07:57:37.937Z,52.80
2023-02-28T07:58:37.900Z,50.89
2023-02-28T07:59:37.892Z,49.28
2023-02-28T08:00:37.980Z,47.97
2023-02-28T08:01:37.883Z,47.07
2023-02-28T08:02:37.848Z,46.37
2023-02-28T08:03:37.834Z,45.77
2023-02-28T08:04:37.904Z,45.47
2023-02-28T08:05:37.834Z,45.57
2023-02-28T08:06:37.831Z,45.29
2023-02-28T08:07:37.782Z,44.79
2023-02-28T08:08:37.794Z,43.68
2023-02-28T08:09:37.763Z,42.68
2023-02-28T08:10:37.769Z,42.07
2023-02-28T08:11:37.738Z,41.37
2023-02-28T08:12:37.767Z,41.17
2023-02-28T08:13:37.720Z,39.97
2023-02-28T08:14:37.722Z,37.67
2023-02-28T08:15:37.696Z,36.57
2023-02-28T08:16:37.735Z,37.77
2023-02-28T08:17:37.682Z,36.69
2023-02-28T08:18:37.727Z,37.19
2023-02-28T08:19:37.685Z,37.21
2023-02-28T08:20:37.670Z,37.21
2023-02-28T08:21:37.637Z,36.42
2023-02-28T08:22:37.639Z,36.22
2023-02-28T08:23:37.642Z,36.02
2023-02-28T08:24:37.622Z,35.13
2023-02-28T08:25:37.590Z,35.33
2023-02-28T08:26:37.617Z,35.63
2023-02-28T08:27:37.570Z,35.03
2023-02-28T08:28:37.611Z,35.45
2023-02-28T08:29:37.576Z,34.74
2023-02-28T08:30:37.561Z,34.44
2023-02-28T08:31:37.553Z,34.94
2023-02-28T08:32:37.724Z,34.14
2023-02-28T08:33:37.509Z,33.84
2023-02-28T08:34:37.512Z,35.05
2023-02-28T08:35:37.570Z,34.44
2023-02-28T08:36:37.547Z,34.34
2023-02-28T08:37:37.475Z,32.83
2023-02-28T08:38:37.487Z,33.15
2023-02-28T08:39:37.448Z,32.64
2023-02-28T08:40:37.455Z,31.84
2023-02-28T08:41:37.425Z,30.83
2023-02-28T08:42:37.450Z,32.35
2023-02-28T08:43:37.413Z,32.86
2023-02-28T08:44:37.460Z,33.67
2023-02-28T08:45:37.442Z,34.39
2023-02-28T08:46:37.382Z,33.68
2023-02-28T08:47:37.359Z,33.98
2023-02-28T08:48:37.374Z,33.18
2023-02-28T08:49:37.337Z,32.37
2023-02-28T08:50:37.368Z,30.26
2023-02-28T08:51:37.321Z,31.76
2023-02-28T08:52:37.318Z,32.07
2023-02-28T08:53:37.324Z,31.67
2023-02-28T08:54:37.304Z,32.98
2023-02-28T08:55:37.308Z,32.47
2023-02-28T08:56:37.280Z,31.58
2023-02-28T08:57:37.254Z,32.59
2023-02-28T08:58:37.261Z,33.59
2023-02-28T08:59:37.236Z,34.70
2023-02-28T09:00:37.272Z,35.61
2023-02-28T09:01:37.232Z,36.61
2023-02-28T09:02:37.213Z,37.21
2023-02-28T09:03:37.194Z,37.92
2023-02-28T09:04:37.190Z,38.42
2023-02-28T09:05:37.164Z,38.91
2023-02-28T09:06:37.170Z,38.91
2023-02-28T09:07:37.178Z,39.41
2023-02-28T09:08:37.177Z,39.59
2023-02-28T09:09:37.124Z,39.79
2023-02-28T09:10:37.130Z,40.30
2023-02-28T09:11:37.106Z,40.40
2023-02-28T09:12:37.115Z,40.89
2023-02-28T09:13:37.103Z,40.69
2023-02-28T09:14:37.091Z,40.78
2023-02-28T09:15:37.075Z,40.69
2023-02-28T09:16:37.452Z,40.78
2023-02-28T09:17:37.063Z,40.97
2023-02-28T09:18:37.118Z,41.06
2023-02-28T09:19:37.019Z,41.27
2023-02-28T09:20:37.072Z,41.27
2023-02-28T09:21:36.996Z,41.37
2023-02-28T09:22:37.007Z,41.37
2023-02-28T09:23:36.972Z,41.37
2023-02-28T09:24:36.978Z,41.47
2023-02-28T09:25:36.957Z,41.55
2023-02-28T09:26:43.296Z,41.55
2023-02-28T09:27:36.939Z,41.75
2023-02-28T09:28:36.966Z,41.85
2023-02-28T09:29:36.922Z,41.95
2023-02-28T09:30:36.960Z,42.05
2023-02-28T09:31:36.893Z,42.15
2023-02-28T09:32:36.897Z,42.15
2023-02-28T09:33:36.876Z,42.35
2023-02-28T09:34:36.940Z,42.55
2023-02-28T09:35:36.849Z,42.55
2023-02-28T09:36:44.636Z,42.64
2023-02-28T09:37:36.839Z,42.74
2023-02-28T09:38:36.837Z,42.84
2023-02-28T09:39:36.932Z,42.94
2023-02-28T09:40:36.839Z,43.04
2023-02-28T09:41:36.783Z,43.14
2023-02-28T09:42:36.792Z,43.24
2023-02-28T09:43:36.767Z,43.34
2023-02-28T09:44:36.780Z,43.44
2023-02-28T09:45:36.779Z,43.64
2023-02-28T09:46:37.272Z,43.84
2023-02-28T09:47:36.722Z,44.04
2023-02-28T09:48:36.771Z,44.15
2023-02-28T09:49:36.700Z,44.24
2023-02-28T09:50:36.707Z,44.35
2023-02-28T09:51:36.680Z,44.45
2023-02-28T09:52:36.684Z,44.65
2023-02-28T09:53:36.658Z,44.73
2023-02-28T09:54:36.688Z,44.83
2023-02-28T09:55:46.323Z,44.93
2023-02-28T09:56:36.660Z,45.03
2023-02-28T09:57:36.615Z,45.13
2023-02-28T09:58:36.627Z,45.13
2023-02-28T09:59:36.607Z,45.23
2023-02-28T10:00:36.604Z,45.33
2023-02-28T10:01:36.674Z,45.43
2023-02-28T10:02:36.584Z,45.53
2023-02-28T10:03:36.555Z,45.53
2023-02-28T10:04:36.609Z,45.63
2023-02-28T10:05:36.536Z,45.73
2023-02-28T10:06:36.543Z,45.83
2023-02-28T10:07:36.542Z,45.94
2023-02-28T10:08:36.519Z,46.03
2023-02-28T10:09:36.491Z,46.03
2023-02-28T10:10:36.492Z,46.14
2023-02-28T10:11:36.473Z,46.14
2023-02-28T10:12:36.472Z,46.23
2023-02-28T10:13:36.478Z,46.23
2023-02-28T10:14:36.464Z,46.34
2023-02-28T10:15:36.505Z,46.34
2023-02-28T10:16:36.427Z,46.44
2023-02-28T10:17:49.084Z,46.54
2023-02-28T10:18:36.414Z,46.54
2023-02-28T10:19:36.410Z,46.64
2023-02-28T10:20:36.394Z,46.64
2023-02-28T10:21:36.377Z,46.73
2023-02-28T10:22:36.360Z,46.84
2023-02-28T10:23:36.354Z,46.84
2023-02-28T10:24:36.368Z,46.84
2023-02-28T10:25:36.388Z,46.92
2023-02-28T10:26:36.417Z,47.02
2023-02-28T10:27:36.372Z,47.04
2023-02-28T10:28:36.404Z,47.14
2023-02-28T10:29:36.296Z,47.12
2023-02-28T10:30:36.285Z,47.12
2023-02-28T10:31:36.269Z,47.22
2023-02-28T10:32:36.249Z,47.22
2023-02-28T10:33:36.310Z,47.22
2023-02-28T10:34:36.231Z,47.22
2023-02-28T10:35:36.257Z,47.32
2023-02-28T10:36:36.444Z,47.32
2023-02-28T10:37:36.209Z,47.32
2023-02-28T10:38:36.184Z,47.42
2023-02-28T10:39:36.195Z,47.42
2023-02-28T10:40:36.164Z,47.52
2023-02-28T10:41:36.213Z,47.52
2023-02-28T10:42:36.141Z,47.52
2023-02-28T10:43:36.173Z,47.62
2023-02-28T10:44:36.120Z,47.62
2023-02-28T10:45:36.131Z,47.62
2023-02-28T10:46:36.196Z,47.72
2023-02-28T10:47:36.111Z,47.72
2023-02-28T10:48:36.076Z,47.72
2023-02-28T10:49:36.094Z,47.72
2023-02-28T10:50:36.064Z,47.72
2023-02-28T10:51:36.064Z,47.82
2023-02-28T10:52:36.063Z,47.82
2023-02-28T10:53:48.470Z,47.82
2023-02-28T10:54:36.068Z,47.82
2023-02-28T10:55:36.064Z,47.92
2023-02-28T10:56:36.322Z,47.92
2023-02-28T10:57:36.034Z,47.92
2023-02-28T10:58:35.977Z,47.92
2023-02-28T10:59:36.114Z,47.92
2023-02-28T11:00:35.954Z,47.92
2023-02-28T11:01:36.024Z,48.02
2023-02-28T11:02:36.459Z,48.02
2023-02-28T11:03:35.994Z,48.02
2023-02-28T11:04:35.918Z,48.12
2023-02-28T11:05:35.927Z,48.12
2023-02-28T11:06:35.889Z,48.12
2023-02-28T11:07:50.655Z,48.12
2023-02-28T11:08:35.875Z,48.12
2023-02-28T11:09:35.915Z,48.22
2023-02-28T11:10:35.975Z,48.32
2023-02-28T11:11:35.868Z,48.32
2023-02-28T11:12:40.405Z,48.32
2023-02-28T11:13:35.834Z,48.32
2023-02-28T11:14:35.841Z,48.43
2023-02-28T11:15:35.815Z,48.43
2023-02-28T11:16:35.784Z,48.43
2023-02-28T11:17:35.792Z,48.43
2023-02-28T11:18:35.766Z,48.43
2023-02-28T11:19:35.761Z,48.43
2023-02-28T11:20:35.783Z,48.43
2023-02-28T11:21:35.746Z,48.52
2023-02-28T11:22:35.718Z,48.52
2023-02-28T11:23:37.835Z,48.52
2023-02-28T11:24:35.695Z,48.63
2023-02-28T11:25:36.413Z,48.63
2023-02-28T11:26:35.693Z,48.72
2023-02-28T11:27:35.676Z,48.72
2023-02-28T11:28:35.653Z,48.72
2023-02-28T11:29:35.677Z,48.83
2023-02-28T11:30:35.647Z,48.83
2023-02-28T11:31:35.675Z,48.83
2023-02-28T11:32:35.738Z,48.83
2023-02-28T11:33:35.633Z,48.93
2023-02-28T11:34:35.587Z,48.93
2023-02-28T11:35:35.753Z,48.93
2023-02-28T11:36:35.565Z,48.93
2023-02-28T11:37:35.594Z,48.93
2023-02-28T11:38:35.570Z,49.02
2023-02-28T11:39:35.549Z,49.02
2023-02-28T11:40:35.524Z,49.02
2023-02-28T11:41:35.550Z,49.02
2023-02-28T11:42:35.508Z,49.13
2023-02-28T11:43:35.538Z,49.13
2023-02-28T11:44:35.483Z,49.13
2023-02-28T11:45:35.480Z,49.13
2023-02-28T11:46:35.496Z,49.13
2023-02-28T11:47:35.459Z,49.22
2023-02-28T11:48:35.435Z,49.22
2023-02-28T11:49:35.451Z,49.22
2023-02-28T11:50:35.418Z,49.22
2023-02-28T11:51:35.434Z,49.33
2023-02-28T11:52:35.417Z,49.33
2023-02-28T11:53:35.396Z,49.33
2023-02-28T11:54:35.378Z,49.33
2023-02-28T11:55:35.378Z,49.33
2023-02-28T11:56:35.387Z,49.33
2023-02-28T11:57:35.366Z,49.33
2023-02-28T11:58:35.335Z,49.33
2023-02-28T11:59:35.342Z,49.43
2023-02-28T12:00:35.324Z,49.33
2023-02-28T12:01:35.327Z,49.43
2023-02-28T12:02:35.457Z,49.43
2023-02-28T12:03:35.370Z,49.43
2023-02-28T12:04:35.278Z,49.43
2023-02-28T12:05:35.282Z,49.43
2023-02-28T12:06:35.278Z,49.43
2023-02-28T12:07:35.279Z,49.53
2023-02-28T12:08:35.236Z,49.53
2023-02-28T12:09:35.251Z,49.53
2023-02-28T12:10:35.217Z,49.53
2023-02-28T12:11:35.259Z,49.53
2023-02-28T12:12:35.214Z,49.51
2023-02-28T12:13:35.198Z,49.53
2023-02-28T12:14:35.195Z,49.53
2023-02-28T12:15:35.192Z,49.53
2023-02-28T12:16:35.220Z,49.53
2023-02-28T12:17:35.158Z,49.63
2023-02-28T12:18:35.135Z,49.63
2023-02-28T12:19:35.137Z,49.60
2023-02-28T12:20:35.151Z,49.60
2023-02-28T12:21:35.136Z,49.63
2023-02-28T12:22:35.094Z,49.63
2023-02-28T12:23:35.124Z,49.60
2023-02-28T12:24:35.070Z,49.60
2023-02-28T12:25:35.073Z,49.60
2023-02-28T12:26:35.047Z,49.60
2023-02-28T12:27:35.056Z,49.63
2023-02-28T12:28:35.067Z,49.60
2023-02-28T12:29:35.042Z,49.71
2023-02-28T12:30:35.007Z,49.71
2023-02-28T12:31:35.033Z,49.71
2023-02-28T12:32:35.044Z,49.73
2023-02-28T12:33:35.007Z,49.71
2023-02-28T12:34:34.985Z,49.71
2023-02-28T12:35:34.991Z,49.71
2023-02-28T12:36:34.938Z,49.71
2023-02-28T12:37:34.948Z,49.83
2023-02-28T12:38:34.938Z,49.80
2023-02-28T12:39:45.165Z,49.80
2023-02-28T12:40:34.926Z,49.80
2023-02-28T12:41:34.901Z,49.91
2023-02-28T12:42:34.905Z,49.91
2023-02-28T12:43:34.880Z,49.93
2023-02-28T12:44:34.863Z,49.91
2023-02-28T12:45:34.931Z,49.91
2023-02-28T12:46:35.162Z,49.91
2023-02-28T12:47:34.834Z,50.01
2023-02-28T12:48:34.827Z,50.01
2023-02-28T12:49:34.826Z,49.91
2023-02-28T12:50:34.817Z,50.01
2023-02-28T12:51:34.871Z,49.91
2023-02-28T12:52:34.768Z,50.01